AirNav   Air Wisconsin Up To $57,000 Bonus
 
 1306 users online  

6MN3 McKeen Seaplane Base
Howard Lake, Minnesota, USA

GOING TO HOWARD LAKE?


FAA INFORMATION EFFECTIVE 15 JULY 2021

Location

FAA Identifier: 6MN3
Lat/Long: 45-04-22.4200N 094-04-10.8600W
45-04.373667N 094-04.181000W
45.0728944,-94.0696833
(estimated)
Elevation: 1020 ft. / 311 m
From city: 1 mile N of HOWARD LAKE, MN
Time zone: UTC -5 (UTC -6 during Standard Time)
Zip code: 55349

Seaplane Base Operations

Seaplane Base use: Private use. Permission required prior to landing
Activation date: 03/2019
Control tower: no
ARTCC: MINNEAPOLIS CENTER
FSS: PRINCETON FLIGHT SERVICE STATION
Attendance: 
Segmented circle: no

Seaplane Base Communications

WX AWOS-3 at MGG (10 nm N): 128.325 (320-963-3300)
WX AWOS-3 at CFE (11 nm NE): 120.45 (763-684-0762)
WX AWOS-3 at HCD (18 nm SW): 118.525 (320-587-3343)
WX AWOS-3 at LJF (19 nm W): 119.65 (320-693-6456)
WX AWOS-3 at GYL (19 nm S): 119.625 (320-864-5830)

Nearby radio navigation aids

VOR radial/distance  VOR name  Freq  Var
DWNr086/16.3DARWIN VORTAC109.0007E
STCr178/28.6ST CLOUD VOR/DME112.1003E
GEPr256/29.8GOPHER VORTAC117.3006E
FCMr298/30.5FLYING CLOUD VOR/DME117.7001E
MSPr285/36.9MINNEAPOLIS VOR/DME115.3002E

 
NDB name  Hdg/Dist  Freq  Var  ID
PRINCETON210/35.436803EPNM .--. -. --

Seaplane Base Services

Runway Information

Runway 14W/32W

Dimensions: 5500 x 400 ft. / 1676 x 122 m
Surface: water
RUNWAY 14W  RUNWAY 32W
Latitude: 45-04.691383N45-04.055800N
Longitude: 094-04.635550W094-03.726367W
Traffic pattern: leftleft

Seaplane Base Ownership and Management from official FAA records

Ownership: Privately-owned
Owner: CHARLES D. MCKEEN
4894 ITEN AVE. SW
HOWARD LAKE, MN 55349
Phone 612-803-7844
Manager: CHARLES D. MCKEEN
4894 ITEN AVE. SW
HOWARD LAKE, MN 55349
Phone 612-803-7844
EMAIL ADDRESS: CHUCK.MCKEEN@GMAIL.COM (ALL LOWER CASE)

Additional Remarks

OWNER DESIRES ARPT BE CHARTED.

Instrument Procedures

There are no published instrument procedures at 6MN3.

Some nearby airports with instrument procedures:

KMGG - Maple Lake Municipal Airport-Bill Mavencamp Sr Field (10 nm N)
KCFE - Buffalo Municipal Airport (11 nm NE)
KHCD - Hutchinson Municipal Airport-Butler Field (18 nm SW)
KLJF - Litchfield Municipal Airport (19 nm W)
KGYL - Glencoe Municipal Airport (19 nm S)
 
Loc | Ops | Rwys | IFR | FBO | Links
Com | Nav | Svcs | Stats | Notes
Aerial photo
No photo
 
Airport distance calculator
Flying to McKeen Seaplane Base? Find the distance to fly.

From to 6MN3

Sunrise and sunset
Times for 29-Jul-2021
 Local
(UTC-5)
 Zulu
(UTC)
Morning civil twilight05:2510:25
Sunrise05:5910:59
Sunset20:4601:46
Evening civil twilight21:2102:21

Current date and time
Zulu (UTC)  29-Jul-2021 13:52:52
Local (UTC-5)  29-Jul-2021 08:52:52
 
METAR
KMGG 
10nm N 
291335Z AUTO 35008KT 1 1/2SM HZ OVC015 22/17 A3008 RMK AO2 T02220172
KCFE 
11nm NE 
291335Z 2SM HZ 23/16 A3007 RMK AO2 SKY OBSCURED T02250164
KHCD 
18nm SW 
291335Z AUTO 36007G16KT 1 3/4SM HZ VV007 23/17 A3008 RMK AO2 T02300174
KLJF 
18nm W 
291245Z AUTO 36007KT 2 1/2SM HZ CLR 22/17 A3007 RMK AO2
KGYL 
19nm S 
291335Z AUTO 35009KT 2 1/2SM HZ 23/18 A3005 RMK AO2 SKY OBSCURED T02250182
TAF
KSTC 
29nm N 
291137Z 2912/3012 36008KT 1 1/2SM FU SKC TEMPO 2912/2916 3/4SM FU FM292200 36010KT 4SM FU SKC FM300100 VRB03KT P6SM BKN200
NOTAMs
Click for the latest NOTAMs
NOTAMs are issued by the DoD/FAA and will open in a separate window not controlled by AirNav.

 

 
 

Would you like to see your business listed on this page?

 If your business provides an interesting product or service to pilots, flight crews, aircraft, or users of the McKeen Seaplane Base, you should consider listing it here.  To start the listing process, click on the button below
 
Add a business
 

Other Pages about McKeen Seaplane Base

Update a link
 
Copyright © AirNav, LLC. All rights reserved. Privacy Policy  Contact